createdAt,value
2023-03-16T00:02:31.979Z,-77
2023-03-16T00:05:41.760Z,-76
2023-03-16T00:08:47.665Z,-78
2023-03-16T00:11:54.216Z,-77
2023-03-16T00:15:02.067Z,-76
2023-03-16T00:18:08.832Z,-77
2023-03-16T00:21:18.518Z,-77
2023-03-16T00:24:25.274Z,-77
2023-03-16T00:27:31.130Z,-78
2023-03-16T00:30:37.933Z,-77
2023-03-16T00:33:45.650Z,-77
2023-03-16T00:36:55.355Z,-76
2023-03-16T00:40:08.056Z,-76
2023-03-16T00:43:18.969Z,-76
2023-03-16T00:46:28.041Z,-76
2023-03-16T00:49:35.654Z,-76
2023-03-16T00:52:45.096Z,-76
2023-03-16T00:55:53.564Z,-76
2023-03-16T00:59:00.685Z,-77
2023-03-16T01:02:09.718Z,-76
2023-03-16T01:05:16.711Z,-77
2023-03-16T01:08:28.091Z,-75
2023-03-16T01:11:35.555Z,-77
2023-03-16T01:14:45.936Z,-76
2023-03-16T01:17:51.948Z,-77
2023-03-16T01:20:58.692Z,-76
2023-03-16T01:24:07.649Z,-76
2023-03-16T01:27:15.319Z,-76
2023-03-16T01:30:24.165Z,-76
2023-03-16T01:33:32.223Z,-76
2023-03-16T01:36:38.097Z,-76
2023-03-16T01:39:49.246Z,-76
2023-03-16T01:43:07.218Z,-76
2023-03-16T01:46:24.105Z,-77
2023-03-16T01:49:39.512Z,-77
2023-03-16T01:52:46.368Z,-76
2023-03-16T01:55:56.572Z,-76
2023-03-16T01:59:13.994Z,-76
2023-03-16T02:02:26.690Z,-75
2023-03-16T02:05:44.678Z,-77
2023-03-16T02:08:57.065Z,-76
2023-03-16T02:12:09.682Z,-76
2023-03-16T02:15:19.670Z,-77
2023-03-16T02:18:26.705Z,-77
2023-03-16T02:21:49.923Z,-77
2023-03-16T02:24:57.981Z,-76
2023-03-16T02:28:23.646Z,-77
2023-03-16T02:31:34.346Z,-76
2023-03-16T02:34:42.104Z,-76
2023-03-16T02:37:49.051Z,-76
2023-03-16T02:41:04.277Z,-76
2023-03-16T02:44:20.625Z,-76
2023-03-16T02:47:38.696Z,-76
2023-03-16T02:50:50.343Z,-77
2023-03-16T02:53:56.155Z,-77
2023-03-16T02:57:06.575Z,-76
2023-03-16T03:00:18.046Z,-76
2023-03-16T03:03:34.464Z,-76
2023-03-16T03:06:40.403Z,-76
2023-03-16T03:09:47.280Z,-76
2023-03-16T03:12:53.191Z,-76
2023-03-16T03:16:03.418Z,-77
2023-03-16T03:19:11.829Z,-77
2023-03-16T03:22:19.771Z,-77
2023-03-16T03:25:26.915Z,-76
2023-03-16T03:28:34.839Z,-76
2023-03-16T03:31:40.732Z,-76
2023-03-16T03:34:50.023Z,-77
2023-03-16T03:37:55.955Z,-77
2023-03-16T03:41:02.807Z,-79
2023-03-16T03:44:15.312Z,-77
2023-03-16T03:47:22.626Z,-76
2023-03-16T03:50:31.966Z,-76
2023-03-16T03:54:07.532Z,-76
2023-03-16T03:57:24.372Z,-76
2023-03-16T04:00:31.239Z,-77
2023-03-16T04:03:37.883Z,-77
2023-03-16T04:06:48.219Z,-77
2023-03-16T04:09:54.854Z,-76
2023-03-16T04:13:06.406Z,-76
2023-03-16T04:16:16.533Z,-76
2023-03-16T04:19:26.046Z,-77
2023-03-16T04:22:37.369Z,-76
2023-03-16T04:25:43.357Z,-76
2023-03-16T04:28:50.584Z,-77
2023-03-16T04:31:58.573Z,-77
2023-03-16T04:35:09.409Z,-76
2023-03-16T04:38:29.527Z,-77
2023-03-16T04:41:45.850Z,-75
2023-03-16T04:44:56.967Z,-77
2023-03-16T04:48:06.002Z,-76
2023-03-16T04:51:12.013Z,-76
2023-03-16T04:54:27.201Z,-77
2023-03-16T04:57:33.205Z,-77
2023-03-16T05:00:40.896Z,-76
2023-03-16T05:03:57.060Z,-78
2023-03-16T05:07:05.186Z,-76
2023-03-16T05:10:22.125Z,-77
2023-03-16T05:13:28.916Z,-76
2023-03-16T05:16:37.740Z,-76
2023-03-16T05:19:45.457Z,-75
2023-03-16T05:22:54.007Z,-77
2023-03-16T05:26:13.403Z,-77
2023-03-16T05:29:19.852Z,-76
2023-03-16T05:32:26.608Z,-76
2023-03-16T05:35:32.830Z,-77
2023-03-16T05:38:45.808Z,-78
2023-03-16T05:42:01.970Z,-77
2023-03-16T05:45:19.070Z,-77
2023-03-16T05:48:37.836Z,-77
2023-03-16T05:51:45.943Z,-77
2023-03-16T05:54:52.753Z,-77
2023-03-16T05:58:03.802Z,-75
2023-03-16T06:01:13.530Z,-76
2023-03-16T06:04:23.437Z,-76
2023-03-16T06:07:32.602Z,-76
2023-03-16T06:10:39.956Z,-75
2023-03-16T06:13:48.437Z,-75
2023-03-16T06:16:55.791Z,-76
2023-03-16T06:20:02.035Z,-76
2023-03-16T06:23:09.265Z,-76
2023-03-16T06:26:16.052Z,-77
2023-03-16T06:29:27.739Z,-76
2023-03-16T06:32:34.838Z,-76
2023-03-16T06:35:41.888Z,-76
2023-03-16T06:38:56.053Z,-77
2023-03-16T06:42:06.790Z,-82
2023-03-16T06:45:16.817Z,-77
2023-03-16T06:48:23.787Z,-80
2023-03-16T06:51:30.300Z,-77
2023-03-16T06:54:37.916Z,-77
2023-03-16T06:57:45.295Z,-78
2023-03-16T07:00:54.696Z,-77
2023-03-16T07:04:01.979Z,-77
2023-03-16T07:07:12.095Z,-78
2023-03-16T07:10:21.074Z,-77
2023-03-16T07:13:27.594Z,-80
2023-03-16T07:16:36.564Z,-78
2023-03-16T07:19:46.420Z,-76
2023-03-16T07:22:53.255Z,-77
2023-03-16T07:26:01.217Z,-78
2023-03-16T07:29:07.868Z,-77
2023-03-16T07:32:17.445Z,-77
2023-03-16T07:35:26.698Z,-77
2023-03-16T07:38:35.627Z,-76
2023-03-16T07:41:45.564Z,-78
2023-03-16T07:44:57.792Z,-77
2023-03-16T07:48:08.817Z,-75
2023-03-16T07:51:25.387Z,-77
2023-03-16T07:54:31.704Z,-77
2023-03-16T07:57:39.383Z,-76
2023-03-16T08:00:45.417Z,-77
2023-03-16T08:03:54.649Z,-77
2023-03-16T08:07:02.334Z,-81
2023-03-16T08:10:23.237Z,-79
2023-03-16T08:13:35.792Z,-81
2023-03-16T08:16:43.802Z,-77
2023-03-16T08:19:52.340Z,-76
2023-03-16T08:23:00.575Z,-77
2023-03-16T08:26:13.269Z,-78
2023-03-16T08:29:19.898Z,-79
2023-03-16T08:32:27.033Z,-80
2023-03-16T08:35:36.409Z,-79
2023-03-16T08:38:44.136Z,-81
2023-03-16T08:41:52.361Z,-78
2023-03-16T08:45:12.286Z,-79
2023-03-16T08:48:22.307Z,-77
2023-03-16T08:51:32.779Z,-79
2023-03-16T08:54:39.451Z,-80
2023-03-16T08:57:46.537Z,-79
2023-03-16T09:00:53.099Z,-78
2023-03-16T09:04:00.709Z,-77
2023-03-16T09:07:10.564Z,-78
2023-03-16T09:10:19.119Z,-79
2023-03-16T09:13:26.138Z,-78
2023-03-16T09:16:34.641Z,-78
2023-03-16T09:19:52.188Z,-78
2023-03-16T09:23:02.135Z,-78
2023-03-16T09:26:10.731Z,-80
2023-03-16T09:29:16.796Z,-78
2023-03-16T09:32:26.482Z,-79
2023-03-16T09:35:34.357Z,-79
2023-03-16T09:38:45.298Z,-78
2023-03-16T09:42:06.063Z,-79
2023-03-16T09:45:29.271Z,-79
2023-03-16T09:48:41.332Z,-78
2023-03-16T09:52:00.726Z,-78
2023-03-16T09:55:29.207Z,-78
2023-03-16T09:58:36.815Z,-77
2023-03-16T10:02:04.553Z,-78
2023-03-16T10:05:17.264Z,-78
2023-03-16T10:08:29.253Z,-78
2023-03-16T10:11:47.129Z,-78
2023-03-16T10:15:02.028Z,-78
2023-03-16T10:18:19.283Z,-78
2023-03-16T10:21:27.472Z,-78
2023-03-16T10:24:57.017Z,-78
2023-03-16T10:28:05.689Z,-77
2023-03-16T10:31:18.258Z,-78
2023-03-16T10:34:25.007Z,-78
2023-03-16T10:37:34.282Z,-78
2023-03-16T10:40:43.034Z,-77
2023-03-16T10:43:57.524Z,-79
2023-03-16T10:47:08.469Z,-78
2023-03-16T10:50:21.220Z,-77
2023-03-16T10:53:33.138Z,-78
2023-03-16T10:56:40.482Z,-77
2023-03-16T10:59:52.964Z,-78
2023-03-16T11:03:02.662Z,-78
2023-03-16T11:06:20.736Z,-78
2023-03-16T11:09:34.235Z,-77
2023-03-16T11:12:40.082Z,-77
2023-03-16T11:15:58.798Z,-79
2023-03-16T11:19:20.905Z,-78
2023-03-16T11:22:30.361Z,-78
2023-03-16T11:25:48.157Z,-78
2023-03-16T11:29:09.480Z,-79
2023-03-16T11:32:28.918Z,-78
2023-03-16T11:35:59.187Z,-78
2023-03-16T11:39:26.839Z,-77
2023-03-16T11:42:41.777Z,-79
2023-03-16T11:46:05.710Z,-78
2023-03-16T11:49:58.365Z,-80
2023-03-16T11:53:21.373Z,-80
2023-03-16T11:56:37.701Z,-81
2023-03-16T12:00:10.708Z,-80
2023-03-16T12:04:02.399Z,-79
2023-03-16T12:07:39.718Z,-77
2023-03-16T12:10:58.750Z,-78
2023-03-16T12:14:19.820Z,-78
2023-03-16T12:17:35.289Z,-76
2023-03-16T12:20:53.097Z,-78
2023-03-16T12:24:07.335Z,-78
2023-03-16T12:27:21.384Z,-78
2023-03-16T12:30:58.292Z,-78
2023-03-16T12:34:26.054Z,-78
2023-03-16T12:37:48.216Z,-77
2023-03-16T12:41:19.991Z,-77
2023-03-16T12:44:40.028Z,-76
2023-03-16T12:48:00.968Z,-78
2023-03-16T12:51:13.439Z,-77
2023-03-16T12:54:25.437Z,-78
2023-03-16T12:57:37.597Z,-78
2023-03-16T13:00:45.431Z,-77
2023-03-16T13:04:04.222Z,-78
2023-03-16T13:07:19.478Z,-80
2023-03-16T13:10:27.005Z,-79
2023-03-16T13:13:37.421Z,-79
2023-03-16T13:16:45.671Z,-80
2023-03-16T13:20:06.894Z,-79
2023-03-16T13:23:30.316Z,-78
2023-03-16T13:26:45.541Z,-78
2023-03-16T13:30:05.474Z,-78
2023-03-16T13:33:25.827Z,-78
2023-03-16T13:36:35.095Z,-78
2023-03-16T13:39:40.965Z,-78
2023-03-16T13:42:53.312Z,-77
2023-03-16T13:46:03.692Z,-77
2023-03-16T13:49:10.382Z,-78
2023-03-16T13:52:28.924Z,-76
2023-03-16T13:55:41.750Z,-78
2023-03-16T13:58:52.867Z,-78
2023-03-16T14:02:04.604Z,-78
2023-03-16T14:05:15.908Z,-77
2023-03-16T14:08:26.964Z,-78
2023-03-16T14:11:33.742Z,-77
2023-03-16T14:14:43.901Z,-78
2023-03-16T14:17:52.600Z,-78
2023-03-16T14:21:00.339Z,-79
2023-03-16T14:24:09.604Z,-78
2023-03-16T14:27:33.003Z,-79
2023-03-16T14:30:38.855Z,-78
2023-03-16T14:33:48.331Z,-77
2023-03-16T14:36:54.290Z,-78
2023-03-16T14:40:09.186Z,-77
2023-03-16T14:43:15.825Z,-78
2023-03-16T14:46:33.629Z,-76
2023-03-16T14:49:43.609Z,-77
2023-03-16T14:52:51.989Z,-78
2023-03-16T14:56:01.313Z,-77
2023-03-16T14:59:09.169Z,-78
2023-03-16T15:02:23.155Z,-78
2023-03-16T15:05:40.740Z,-77
2023-03-16T15:08:51.073Z,-77
2023-03-16T15:11:58.325Z,-77
2023-03-16T15:15:19.599Z,-78
2023-03-16T15:18:26.180Z,-78
2023-03-16T15:21:35.141Z,-77
2023-03-16T15:24:42.652Z,-77
2023-03-16T15:27:49.287Z,-77
2023-03-16T15:30:59.726Z,-78
2023-03-16T15:34:07.298Z,-78
2023-03-16T15:37:26.324Z,-77
2023-03-16T15:40:33.911Z,-78
2023-03-16T15:43:40.610Z,-77
2023-03-16T15:46:46.753Z,-76
2023-03-16T15:49:53.301Z,-76
2023-03-16T15:53:13.251Z,-77
2023-03-16T15:56:30.096Z,-76
2023-03-16T15:59:40.166Z,-76
2023-03-16T16:02:46.748Z,-76
2023-03-16T16:05:53.402Z,-76
2023-03-16T16:09:02.910Z,-76
2023-03-16T16:12:13.057Z,-76
2023-03-16T16:15:25.808Z,-76
2023-03-16T16:18:37.580Z,-77
2023-03-16T16:21:44.909Z,-77
2023-03-16T16:24:53.390Z,-76
2023-03-16T16:28:00.452Z,-76
2023-03-16T16:31:17.158Z,-76
2023-03-16T16:34:27.314Z,-77
2023-03-16T16:37:33.449Z,-76
2023-03-16T16:40:46.303Z,-76
2023-03-16T16:43:56.544Z,-76
2023-03-16T16:47:03.649Z,-76
2023-03-16T16:50:18.757Z,-76
2023-03-16T16:53:25.691Z,-76
2023-03-16T16:56:39.027Z,-76
2023-03-16T16:59:47.203Z,-76
2023-03-16T17:02:58.903Z,-75
2023-03-16T17:06:05.514Z,-76
2023-03-16T17:09:12.508Z,-76
2023-03-16T17:12:26.324Z,-76
2023-03-16T17:15:35.224Z,-77
2023-03-16T17:18:42.349Z,-77
2023-03-16T17:21:49.243Z,-77
2023-03-16T17:24:56.434Z,-76
2023-03-16T17:28:05.812Z,-76
2023-03-16T17:31:15.703Z,-75
2023-03-16T17:34:26.058Z,-76
2023-03-16T17:37:32.704Z,-78
2023-03-16T17:40:38.805Z,-77
2023-03-16T17:43:51.497Z,-76
2023-03-16T17:46:57.754Z,-77
2023-03-16T17:50:04.549Z,-76
2023-03-16T17:53:10.334Z,-76
2023-03-16T17:56:27.223Z,-76
2023-03-16T17:59:36.677Z,-77
2023-03-16T18:02:56.769Z,-78
2023-03-16T18:06:02.729Z,-76
2023-03-16T18:09:09.856Z,-77
2023-03-16T18:12:15.753Z,-77
2023-03-16T18:15:31.286Z,-76
2023-03-16T18:18:41.931Z,-76
2023-03-16T18:21:48.578Z,-76
2023-03-16T18:24:58.114Z,-76
2023-03-16T18:28:05.394Z,-78
2023-03-16T18:31:24.340Z,-76
2023-03-16T18:34:37.793Z,-76
2023-03-16T18:37:44.914Z,-76
2023-03-16T18:40:51.617Z,-77
2023-03-16T18:44:01.156Z,-77
2023-03-16T18:47:22.167Z,-77
2023-03-16T18:50:32.008Z,-78
2023-03-16T18:53:38.998Z,-78
2023-03-16T18:56:44.753Z,-79
2023-03-16T18:59:52.412Z,-79
2023-03-16T19:03:09.350Z,-78
2023-03-16T19:06:21.494Z,-77
2023-03-16T19:09:32.223Z,-78
2023-03-16T19:12:39.242Z,-78
2023-03-16T19:15:45.252Z,-77
2023-03-16T19:18:54.608Z,-78
2023-03-16T19:22:13.102Z,-78
2023-03-16T19:25:48.612Z,-78
2023-03-16T19:28:56.477Z,-76
2023-03-16T19:32:04.165Z,-76
2023-03-16T19:35:21.098Z,-76
2023-03-16T19:38:31.873Z,-76
2023-03-16T19:41:44.079Z,-76
2023-03-16T19:44:53.928Z,-76
2023-03-16T19:47:59.862Z,-76
2023-03-16T19:51:09.394Z,-76
2023-03-16T19:54:25.918Z,-76
2023-03-16T19:57:34.081Z,-75
2023-03-16T20:00:43.378Z,-76
2023-03-16T20:03:54.793Z,-76
2023-03-16T20:07:03.324Z,-75
2023-03-16T20:10:11.911Z,-76
2023-03-16T20:13:31.890Z,-75
2023-03-16T20:16:39.556Z,-75
2023-03-16T20:19:48.639Z,-76
2023-03-16T20:23:02.503Z,-76
2023-03-16T20:26:17.905Z,-75
2023-03-16T20:29:32.894Z,-75
2023-03-16T20:32:40.120Z,-75
2023-03-16T20:35:47.529Z,-75
2023-03-16T20:38:56.170Z,-75
2023-03-16T20:42:16.768Z,-74
2023-03-16T20:45:33.797Z,-75
2023-03-16T20:48:43.384Z,-75
2023-03-16T20:51:49.692Z,-75
2023-03-16T20:54:58.915Z,-75
2023-03-16T20:58:05.718Z,-75
2023-03-16T21:01:18.899Z,-75
2023-03-16T21:04:31.258Z,-75
2023-03-16T21:07:37.949Z,-75
2023-03-16T21:10:49.438Z,-76
2023-03-16T21:13:57.571Z,-77
2023-03-16T21:17:06.522Z,-75
2023-03-16T21:20:20.744Z,-76
2023-03-16T21:23:27.644Z,-75
2023-03-16T21:26:37.967Z,-75
2023-03-16T21:29:44.016Z,-75
2023-03-16T21:32:50.771Z,-75
2023-03-16T21:35:57.039Z,-74
2023-03-16T21:39:04.113Z,-75
2023-03-16T21:42:12.828Z,-75
2023-03-16T21:45:20.418Z,-74
2023-03-16T21:48:32.597Z,-75
2023-03-16T21:51:40.259Z,-74
2023-03-16T21:54:47.738Z,-74
2023-03-16T21:58:02.950Z,-74
2023-03-16T22:01:09.712Z,-75
2023-03-16T22:04:20.778Z,-75
2023-03-16T22:07:28.469Z,-75
2023-03-16T22:10:35.513Z,-74
2023-03-16T22:13:44.442Z,-75
2023-03-16T22:16:52.154Z,-74
2023-03-16T22:19:58.209Z,-75
2023-03-16T22:23:07.899Z,-75
2023-03-16T22:26:22.638Z,-74
2023-03-16T22:29:33.954Z,-74
2023-03-16T22:32:39.911Z,-74
2023-03-16T22:35:47.475Z,-77
2023-03-16T22:39:02.386Z,-74
2023-03-16T22:42:31.206Z,-75
2023-03-16T22:45:39.968Z,-75
2023-03-16T22:48:46.627Z,-76
2023-03-16T22:51:58.408Z,-75
2023-03-16T22:55:10.129Z,-75
2023-03-16T22:58:30.921Z,-75
2023-03-16T23:01:45.049Z,-75
2023-03-16T23:04:51.008Z,-76
2023-03-16T23:07:58.367Z,-75
2023-03-16T23:11:04.445Z,-75
2023-03-16T23:14:17.621Z,-75
2023-03-16T23:17:26.082Z,-75
2023-03-16T23:20:35.276Z,-75
2023-03-16T23:23:44.372Z,-75
2023-03-16T23:26:54.123Z,-76
2023-03-16T23:30:00.044Z,-76
2023-03-16T23:33:09.364Z,-76
2023-03-16T23:36:18.559Z,-76
2023-03-16T23:39:25.861Z,-76
2023-03-16T23:42:31.793Z,-76
2023-03-16T23:45:44.625Z,-76
2023-03-16T23:48:58.341Z,-76
2023-03-16T23:52:05.548Z,-75
2023-03-16T23:55:16.365Z,-76
2023-03-16T23:58:23.064Z,-76
